[source: ADDS]
METAR
EDVE 241550Z 26001KT 9999 OVC016 02/M00 Q0997

TAF EDVE 241400Z 2415/2421 28004KT 8000 BKN012 TEMPO 2415/2421 33009KT 3500 RASN BKN008 EDDV 242050Z 26007KT 230V290 9999 FEW018 SCT034 02/M00 Q0999 NOSIG

TAF EDDV 241700Z 2418/2518 26005KT 9999 BKN030 PROB30 TEMPO 2418/2420 4500 -RASN BKN009 PROB30 TEMPO 2505/2509 3500 BR ETHS 242020Z 24005KT 9999 SCT015 BKN045 01/00 Q0998 BLU

ETHC 242020Z 23006KT 9999 -SHRASN BKN023 BKN050 02/01 Q0999 WHT

EDVK 241650Z 27010KT 9999 FEW014 BKN034 01/M01 Q0998

TAF EDVK 241700Z 2418/2503 27008KT 9999 FEW012 SCT025 BECMG 2418/2421 22003KT
TAF
TAF EDVE 241400Z 2415/2421 28004KT 8000 BKN012 TEMPO 2415/2421 33009KT 3500 RASN BKN008

TAF EDDV 241700Z 2418/2518 26005KT 9999 BKN030 PROB30 TEMPO 2418/2420 4500 -RASN BKN009 PROB30 TEMPO 2505/2509 3500 BR

TAF EDVK 241700Z 2418/2503 27008KT 9999 FEW012 SCT025 BECMG 2418/2421 22003KT

SR / SS: 07:09 / 15:50 UTC (EDVE 2021-01-24)
Frederik hat seinen ersten Alleinflug absolviert! Herzlichen Glückwunsch und weiterhin Happy Landings! +++ Willkommen in der FFG, Torben! Viel Erfolg bei der Ausbildung! +++ Wir begrüßen Jens als neues Mitglied der FFG! Viel Spass und always Happy Landings! +++ Herzlich willkommen bei der FFG, Sonja! Viel Spass und always Happy Landings! +++ Wir heißen Marek und Stefan als neue Flugschüler willkommen und wünschen eine erfolgreiche Ausbildung! +++ Wir gratulieren Felix und Julian zu ihrem ersten Soloflug! Herzlichen Glückwunsch und always Happy landings! +++ Mathias hat seine PPL-Prüfung bestanden! Herzlichen Glückwunsch und weiterhin Happy Landings! +++ Wir begrüßen Karsten in den Reihen der FFG! Viel Erfolg bei der Ausbildung! +++ Gianluca hat seine PPL-Prüfung bestanden! Herzlichen Glückwunsch und weiterhin Happy Landings! +++ Wir heißen Jan-Philipp als neues Mitglied der FFG willkommen! Viel Spass und always Happy Landings!

wenig -> mittel -> viel

Professionelle Piloten arbeiten mit Checkliste
Ausdrucken und abarbeiten!

Weiterlesen ...

 Zugang zur DFS. Auf dem FFG-Account sind alle erforderlichen Daten unserer Maschinen hinterlegt.

DFS Login

Hier gibt es die AIP mit allen erforderlichen Karten die im Abo der FFG liegen zum Download für unsere Mitglieder.

Charts Zugang
Letztes NOTAM EDVE
von 04.01.2021 0710Z bis 31.03.2021 2359Z
ALL VFR FLT AND IFR TRAINING FLT HAVE TO EXPECT RESTRICTIONS AND/OR DELAY DUE TO ATC CAPACITY.

Letztes NOTAM EDCB
von 28.10.2020 1126Z bis 26.01.2021 2359Z
GRASS RWY 09/27 CLSD.

Letztes NOTAM EDBC
von 22.01.2021 1536Z bis 25.01.2021 1400Z
MAGDEBURG VOR/DME MAG 110.45MHZ/CH41Y, VOR-PART OUT OF SERVICE.

Letztes NOTAM EDVM
von 13.11.2020 1500Z bis 28.02.2021 1830Z
GRAS RWY 07/25 AVBL PPR.

Letztes NOTAM EDVI
von 01.12.2020 0000Z bis 28.02.2021 2359Z
AD PPR. PPR REQ VIA TEL +49 (0) 163 5744126 OR +49 (0) 5271 6999060.

Letztes NOTAM EDDV
von 05.01.2021 1316Z bis 03.04.2021 2359Z
DUE TO INSUFFICIENT NAV AID COVERAGE OF NIE VOR THE FLW CHANGES TO APCH PROC OCCUR: RWY 09L LOC AND NDB: CROSSING R132 UNUSABLE. REF A [more]

Letztes NOTAM EDVK
von 22.01.2021 0836Z bis 21.04.2021 2359Z
OCA(H) VALUES RAISED AS FOLLOWS: ILS CAT I RWY 27: A 951 (148), B 961 (158), C 970 (167), D 980 (177) FEET ILS CAT II RWY 27: A 862 ( [more]

Letztes NOTAM EDVS
von 02.11.2020 0755Z bis 01.02.2021 2359Z
AD AVBL ONLY FOR HOMEBASED PILOTS.